Time;durP1;ratioP1;P1;durP2;ratioP2;P2;SDS_P1;SDS_P2;PMS_P1;PMS_P2;Temp;Humidity;BMP_temperature;BMP_pressure;BME280_temperature;BME280_humidity;BME280_pressure;Samples;Min_cycle;Max_cycle;Signal;HPM_P1;HPM_P2
2024/01/05 00:02:02;;;;;;;;;;;;;;;15.46;38.14;99231.59;4447923;32;35009;-82
2024/01/05 00:04:29;;;;;;;;;;;;;;;15.66;37.64;99234.50;4445204;32;33458;-80
2024/01/05 00:06:56;;;;;;;;;;;;;;;15.86;37.15;99238.31;4453673;32;34838;-80
2024/01/05 00:09:24;;;;;;;;;;;;;;;15.52;37.85;99242.12;4453197;32;35003;-82
2024/01/05 00:11:51;;;;;;;;;;;;;;;15.77;37.17;99243.41;4448842;32;35085;-80
2024/01/05 00:14:19;;;;;;;;;;;;;;;16.15;36.33;99245.69;4434647;32;33703;-79
2024/01/05 00:16:46;;;;;;;;;;;;;;;16.24;36.03;99245.78;4449873;32;33806;-81
2024/01/05 00:19:14;;;;;;;;;;;;;;;16.29;35.80;99254.56;4453312;32;34823;-82
2024/01/05 00:21:41;;;;;;;;;;;;;;;16.12;36.15;99256.09;4451929;32;35166;-79
2024/01/05 00:24:08;;;;;;;;;;;;;;;16.04;36.07;99262.94;4457093;32;33501;-82
2024/01/05 00:26:39;;;;;;;;;;;;;;;16.30;35.61;99261.56;4439996;32;33372;-81
2024/01/05 00:29:07;;;;;;;;;;;;;;;15.90;36.28;99266.25;4451163;32;34039;-79
2024/01/05 00:31:34;;;;;;;;;;;;;;;15.64;36.72;99267.53;4450572;32;34258;-81
2024/01/05 00:34:02;;;;;;;;;;;;;;;15.62;37.03;99266.63;4450112;32;34352;-81
2024/01/05 00:36:30;;;;;;;;;;;;;;;15.63;37.14;99268.41;4451355;32;34659;-83
2024/01/05 00:38:57;;;;;;;;;;;;;;;15.47;37.45;99275.09;4454495;32;34930;-81
2024/01/05 00:41:24;;;;;;;;;;;;;;;15.50;37.35;99270.81;4455758;32;34808;-82
2024/01/05 00:43:52;;;;;;;;;;;;;;;15.69;37.04;99276.34;4455349;32;33235;-80
2024/01/05 00:46:19;;;;;;;;;;;;;;;16.10;36.30;99283.94;4447791;32;35377;-82
2024/01/05 00:48:47;;;;;;;;;;;;;;;15.94;36.58;99284.59;4455970;32;34671;-80
2024/01/05 00:51:14;;;;;;;;;;;;;;;15.89;36.62;99280.16;4439807;32;34443;-82
2024/01/05 00:53:41;;;;;;;;;;;;;;;15.91;36.59;99283.66;4451292;32;33057;-82
2024/01/05 00:56:09;;;;;;;;;;;;;;;15.97;36.49;99289.84;4459329;32;33676;-82
2024/01/05 00:58:36;;;;;;;;;;;;;;;16.17;36.11;99290.09;4451281;32;35031;-80
2024/01/05 01:01:05;;;;;;;;;;;;;;;16.04;36.23;99278.63;4435951;32;33477;-80
2024/01/05 01:03:33;;;;;;;;;;;;;;;16.06;36.22;99287.38;4450441;32;33745;-80
2024/01/05 01:06:00;;;;;;;;;;;;;;;16.67;34.91;99280.31;4452537;32;34973;-80
2024/01/05 01:08:27;;;;;;;;;;;;;;;16.31;35.28;99279.00;4452734;32;34703;-83
2024/01/05 01:10:55;;;;;;;;;;;;;;;16.45;34.95;99275.69;4453361;32;34310;-81
2024/01/05 01:13:22;;;;;;;;;;;;;;;16.62;34.61;99279.38;4453000;32;33394;-82
2024/01/05 01:15:49;;;;;;;;;;;;;;;16.68;34.28;99269.00;4453602;32;33932;-83
2024/01/05 01:18:17;;;;;;;;;;;;;;;15.95;35.41;99265.44;4454424;32;34190;-79
2024/01/05 01:20:44;;;;;;;;;;;;;;;16.55;34.35;99261.84;4456170;32;34329;-79
2024/01/05 01:23:11;;;;;;;;;;;;;;;16.78;33.71;99263.88;4453206;32;33974;-80
2024/01/05 01:25:39;;;;;;;;;;;;;;;16.40;34.38;99270.41;4456110;32;34295;-82
2024/01/05 01:28:08;;;;;;;;;;;;;;;16.94;33.39;99276.31;4435560;32;34667;-81
2024/01/05 01:30:36;;;;;;;;;;;;;;;16.88;33.44;99277.13;4455652;32;33984;-80
2024/01/05 01:33:04;;;;;;;;;;;;;;;16.93;33.47;99279.78;4449320;32;33646;-82
2024/01/05 01:35:31;;;;;;;;;;;;;;;16.90;33.42;99274.50;4452098;32;33877;-81
2024/01/05 01:37:59;;;;;;;;;;;;;;;16.62;34.06;99275.91;4448475;32;33876;-81
2024/01/05 01:40:26;;;;;;;;;;;;;;;17.10;33.05;99279.94;4451745;32;34456;-81
2024/01/05 01:42:55;;;;;;;;;;;;;;;17.11;32.96;99276.44;4452434;32;33320;-83
2024/01/05 01:45:22;;;;;;;;;;;;;;;16.60;33.63;99278.50;4452409;32;34069;-82
2024/01/05 01:47:50;;;;;;;;;;;;;;;17.25;32.49;99271.38;4454109;32;34648;-80
2024/01/05 01:50:17;;;;;;;;;;;;;;;16.95;33.18;99274.56;4434948;32;34947;-80
2024/01/05 01:52:45;;;;;;;;;;;;;;;17.39;32.46;99264.50;4452538;32;33907;-83
2024/01/05 01:55:13;;;;;;;;;;;;;;;17.32;32.62;99257.47;4435024;32;33577;-80
2024/01/05 01:57:40;;;;;;;;;;;;;;;16.83;33.61;99251.78;4453458;32;33945;-79
2024/01/05 02:00:09;;;;;;;;;;;;;;;17.18;33.07;99243.38;4438297;32;34207;-80
2024/01/05 02:02:36;;;;;;;;;;;;;;;16.54;34.22;99239.22;4436450;32;33154;-82
2024/01/05 02:05:05;;;;;;;;;;;;;;;15.90;35.58;99240.13;4438416;32;33917;-79
2024/01/05 02:07:32;;;;;;;;;;;;;;;15.65;35.91;99243.19;4451360;32;34243;-80
2024/01/05 02:10:00;;;;;;;;;;;;;;;15.40;36.63;99237.59;4452424;32;34460;-80
2024/01/05 02:12:27;;;;;;;;;;;;;;;15.45;36.79;99241.16;4452110;32;33421;-82
2024/01/05 02:14:54;;;;;;;;;;;;;;;15.50;36.64;99243.84;4423988;32;33377;-80
2024/01/05 02:17:42;;;;;;;;;;;;;;;15.73;36.46;99242.47;4437808;32;33977;-82
2024/01/05 02:20:09;;;;;;;;;;;;;;;15.33;37.09;99235.72;4444857;32;32619;-80
2024/01/05 02:22:38;;;;;;;;;;;;;;;15.70;36.33;99236.28;4452515;32;33460;-80
2024/01/05 02:25:05;;;;;;;;;;;;;;;15.30;37.03;99238.31;4433572;32;33858;-82
2024/01/05 02:27:34;;;;;;;;;;;;;;;15.77;36.18;99238.19;4451693;32;33946;-79
2024/01/05 02:30:01;;;;;;;;;;;;;;;15.40;36.82;99239.31;4450560;32;34544;-82
2024/01/05 02:32:30;;;;;;;;;;;;;;;15.92;35.97;99241.03;4451908;32;33067;-82
2024/01/05 02:34:58;;;;;;;;;;;;;;;15.75;36.36;99245.13;4452102;32;34381;-81
2024/01/05 02:37:25;;;;;;;;;;;;;;;16.10;35.57;99236.91;4452339;32;34690;-79
2024/01/05 02:39:53;;;;;;;;;;;;;;;16.04;35.74;99242.94;4450949;32;34798;-80
2024/01/05 02:42:20;;;;;;;;;;;;;;;15.77;36.19;99253.84;4430159;32;32261;-80
2024/01/05 02:44:47;;;;;;;;;;;;;;;15.95;36.00;99252.38;4453461;32;34204;-81
2024/01/05 02:47:15;;;;;;;;;;;;;;;16.39;35.15;99241.63;4452270;32;34126;-80
2024/01/05 02:49:42;;;;;;;;;;;;;;;16.11;35.70;99252.63;4450482;32;35060;-81
2024/01/05 02:52:09;;;;;;;;;;;;;;;16.05;35.76;99264.69;4454645;32;34108;-80
2024/01/05 02:54:37;;;;;;;;;;;;;;;15.91;35.94;99256.66;4450608;32;34052;-80
2024/01/05 02:57:05;;;;;;;;;;;;;;;16.25;35.54;99255.41;4429794;32;35142;-80
2024/01/05 02:59:34;;;;;;;;;;;;;;;16.24;35.50;99260.59;4452610;32;34727;-80
2024/01/05 03:02:02;;;;;;;;;;;;;;;16.11;35.77;99259.56;4451439;32;33384;-81
2024/01/05 03:04:29;;;;;;;;;;;;;;;15.90;36.11;99268.84;4453495;32;34005;-79
2024/01/05 03:06:56;;;;;;;;;;;;;;;16.13;35.82;99276.16;4451824;32;34126;-81
2024/01/05 03:09:23;;;;;;;;;;;;;;;16.37;35.35;99266.88;4452500;32;35063;-82
2024/01/05 03:11:51;;;;;;;;;;;;;;;16.39;35.26;99273.00;4448058;32;33343;-81
2024/01/05 03:14:19;;;;;;;;;;;;;;;16.12;35.64;99271.78;4452500;32;34058;-82
2024/01/05 03:16:46;;;;;;;;;;;;;;;16.45;35.14;99266.09;4453866;32;35014;-80
2024/01/05 03:19:14;;;;;;;;;;;;;;;16.36;35.34;99259.88;4452841;32;35040;-80
2024/01/05 03:21:41;;;;;;;;;;;;;;;16.23;35.57;99253.63;4452075;32;33320;-80
2024/01/05 03:24:08;;;;;;;;;;;;;;;16.21;35.69;99261.44;4455188;32;33837;-79
2024/01/05 03:26:36;;;;;;;;;;;;;;;16.27;35.59;99245.84;4457319;32;35019;-83
2024/01/05 03:29:03;;;;;;;;;;;;;;;16.42;35.33;99249.53;4437664;32;34786;-82
2024/01/05 03:31:32;;;;;;;;;;;;;;;16.42;35.33;99229.50;4435211;32;31829;-81
2024/01/05 03:33:59;;;;;;;;;;;;;;;16.34;35.41;99240.69;4452132;32;33779;-82
2024/01/05 03:36:27;;;;;;;;;;;;;;;16.39;35.39;99234.66;4453078;32;33453;-82
2024/01/05 03:38:54;;;;;;;;;;;;;;;16.25;35.60;99252.78;4452551;32;35230;-79
2024/01/05 03:41:22;;;;;;;;;;;;;;;16.43;35.26;99257.38;4452863;32;32332;-80
2024/01/05 03:43:49;;;;;;;;;;;;;;;16.55;34.96;99261.84;4454076;32;33808;-83
2024/01/05 03:46:16;;;;;;;;;;;;;;;16.50;34.54;99260.94;4452023;32;33990;-81
2024/01/05 03:48:43;;;;;;;;;;;;;;;16.98;33.89;99262.37;4448108;32;34359;-81
2024/01/05 03:51:11;;;;;;;;;;;;;;;16.66;34.27;99270.72;4452506;32;33426;-79
2024/01/05 03:53:38;;;;;;;;;;;;;;;16.15;35.27;99277.06;4453520;32;34096;-82
2024/01/05 03:56:06;;;;;;;;;;;;;;;15.07;37.09;99277.91;4452068;32;35132;-79
2024/01/05 03:58:34;;;;;;;;;;;;;;;14.66;38.15;99272.78;4450435;32;34378;-80
2024/01/05 04:01:01;;;;;;;;;;;;;;;14.56;38.45;99262.97;4449533;32;33427;-79
2024/01/05 04:03:29;;;;;;;;;;;;;;;14.62;38.63;99270.97;4433119;32;34232;-83
2024/01/05 04:05:56;;;;;;;;;;;;;;;15.09;37.93;99286.63;4451162;32;34064;-82
2024/01/05 04:08:23;;;;;;;;;;;;;;;16.34;35.25;99290.34;4452994;32;34469;-80
2024/01/05 04:10:51;;;;;;;;;;;;;;;15.42;36.74;99295.91;4450413;32;34203;-80
2024/01/05 04:13:18;;;;;;;;;;;;;;;15.43;36.62;99305.50;4451324;32;33540;-81
2024/01/05 04:15:45;;;;;;;;;;;;;;;14.89;38.01;99306.22;4450147;32;33963;-81
2024/01/05 04:18:13;;;;;;;;;;;;;;;15.03;37.74;99310.00;4435553;32;33981;-81
2024/01/05 04:20:40;;;;;;;;;;;;;;;14.57;38.88;99314.28;4454068;32;33470;-82
2024/01/05 04:23:08;;;;;;;;;;;;;;;14.67;38.63;99316.22;4451071;32;33961;-82
2024/01/05 04:25:36;;;;;;;;;;;;;;;14.63;38.68;99322.25;4438421;32;34858;-82
2024/01/05 04:28:03;;;;;;;;;;;;;;;14.97;37.64;99315.09;4453931;32;34344;-79
2024/01/05 04:30:30;;;;;;;;;;;;;;;14.56;38.68;99317.69;4450638;32;33948;-79
2024/01/05 04:32:58;;;;;;;;;;;;;;;13.85;39.67;99315.25;4452682;32;34903;-82
2024/01/05 04:35:25;;;;;;;;;;;;;;;14.05;39.55;99307.91;4452048;32;34094;-82
2024/01/05 04:37:53;;;;;;;;;;;;;;;14.47;38.87;99314.94;4447671;32;33799;-80
2024/01/05 04:40:21;;;;;;;;;;;;;;;14.49;38.90;99319.31;4453774;32;34297;-81
2024/01/05 04:42:48;;;;;;;;;;;;;;;15.06;37.53;99325.69;4453138;32;34901;-82
2024/01/05 04:45:16;;;;;;;;;;;;;;;14.63;38.30;99335.28;4450770;32;34172;-82
2024/01/05 04:47:46;;;;;;;;;;;;;;;14.21;38.97;99330.84;4451121;32;34276;-82
2024/01/05 04:50:14;;;;;;;;;;;;;;;14.24;39.05;99325.72;4449891;32;33420;-81
2024/01/05 04:52:41;;;;;;;;;;;;;;;15.08;37.11;99323.97;4452422;32;34297;-81
2024/01/05 04:55:09;;;;;;;;;;;;;;;15.01;37.22;99316.91;4444653;32;33787;-81
2024/01/05 04:57:37;;;;;;;;;;;;;;;14.70;37.87;99331.09;4454242;32;34448;-79
2024/01/05 05:00:04;;;;;;;;;;;;;;;14.25;38.77;99327.47;4444314;32;33263;-80
2024/01/05 05:02:32;;;;;;;;;;;;;;;14.21;39.05;99341.25;4452754;32;34102;-80
2024/01/05 05:05:00;;;;;;;;;;;;;;;14.28;39.00;99331.88;4453269;32;34447;-81
2024/01/05 05:07:27;;;;;;;;;;;;;;;14.19;39.27;99329.06;4434708;32;34295;-82
2024/01/05 05:09:54;;;;;;;;;;;;;;;14.57;38.73;99335.16;4439890;32;33461;-82
2024/01/05 05:12:21;;;;;;;;;;;;;;;14.80;38.06;99334.75;4453651;32;34968;-82
2024/01/05 05:14:49;;;;;;;;;;;;;;;14.63;38.08;99343.09;4452476;32;32966;-83
2024/01/05 05:17:16;;;;;;;;;;;;;;;14.65;38.03;99337.91;4452936;32;33865;-81
2024/01/05 05:19:43;;;;;;;;;;;;;;;14.61;38.35;99352.59;4453776;32;33485;-81
2024/01/05 05:22:11;;;;;;;;;;;;;;;14.63;38.36;99345.69;4455775;32;34289;-79
2024/01/05 05:24:38;;;;;;;;;;;;;;;15.01;37.30;99336.88;4457688;32;34278;-82
2024/01/05 05:27:06;;;;;;;;;;;;;;;15.19;36.89;99337.25;4453747;32;34383;-79
2024/01/05 05:29:33;;;;;;;;;;;;;;;14.81;37.44;99341.72;4453627;32;34044;-80
2024/01/05 05:32:00;;;;;;;;;;;;;;;14.46;38.19;99362.66;4451456;32;33714;-80
2024/01/05 05:34:28;;;;;;;;;;;;;;;14.48;38.12;99350.53;4452613;32;34363;-82
2024/01/05 05:36:55;;;;;;;;;;;;;;;14.34;38.45;99343.31;4461386;32;34221;-80
2024/01/05 05:39:24;;;;;;;;;;;;;;;14.58;38.16;99342.09;4450858;32;33654;-80
2024/01/05 05:41:51;;;;;;;;;;;;;;;14.68;38.05;99354.50;4455922;32;32797;-83
2024/01/05 05:44:18;;;;;;;;;;;;;;;14.30;38.66;99357.09;4453202;32;34062;-80
2024/01/05 05:46:46;;;;;;;;;;;;;;;14.61;38.08;99352.59;4453637;32;34261;-80
2024/01/05 05:49:14;;;;;;;;;;;;;;;15.02;37.08;99349.97;4453321;32;34415;-79
2024/01/05 05:51:42;;;;;;;;;;;;;;;15.12;36.29;99349.31;4455246;32;34121;-80
2024/01/05 05:54:09;;;;;;;;;;;;;;;14.52;37.28;99362.78;4453763;32;34485;-81
2024/01/05 05:56:38;;;;;;;;;;;;;;;14.38;37.70;99369.44;4448040;32;34435;-82
2024/01/05 05:59:05;;;;;;;;;;;;;;;14.25;37.88;99363.94;4447285;32;34249;-82
2024/01/05 06:01:33;;;;;;;;;;;;;;;14.11;38.36;99375.78;4438824;32;32443;-81
2024/01/05 06:04:01;;;;;;;;;;;;;;;13.92;38.48;99377.03;4452260;32;33945;-83
2024/01/05 06:06:28;;;;;;;;;;;;;;;13.81;38.91;99378.50;4452308;32;34037;-81
2024/01/05 06:08:56;;;;;;;;;;;;;;;13.83;39.39;99369.91;4452038;32;34081;-80
2024/01/05 06:11:26;;;;;;;;;;;;;;;13.83;39.24;99380.31;4453050;32;33961;-81
2024/01/05 06:13:55;;;;;;;;;;;;;;;13.65;39.53;99391.13;4452114;32;33908;-82
2024/01/05 06:16:22;;;;;;;;;;;;;;;13.89;39.20;99390.87;4451296;32;34748;-79
2024/01/05 06:18:50;;;;;;;;;;;;;;;13.73;39.32;99389.63;4453443;32;33521;-82
2024/01/05 06:21:17;;;;;;;;;;;;;;;13.76;39.34;99381.00;4451743;32;34315;-82
2024/01/05 06:23:44;;;;;;;;;;;;;;;13.80;39.22;99389.75;4443252;32;33447;-80
2024/01/05 06:26:12;;;;;;;;;;;;;;;13.77;38.72;99396.66;4445278;32;34167;-79
2024/01/05 06:28:39;;;;;;;;;;;;;;;13.86;38.46;99401.19;4442586;32;31972;-79
2024/01/05 06:31:06;;;;;;;;;;;;;;;13.76;38.94;99404.44;4453714;32;33950;-78
2024/01/05 06:33:34;;;;;;;;;;;;;;;13.59;39.26;99401.38;4446544;32;34348;-80
2024/01/05 06:36:02;;;;;;;;;;;;;;;13.58;39.30;99399.63;4456724;32;33924;-81
2024/01/05 06:38:29;;;;;;;;;;;;;;;13.83;39.01;99403.75;4455193;32;34351;-79
2024/01/05 06:40:57;;;;;;;;;;;;;;;13.55;39.25;99410.81;4459059;32;34910;-80
2024/01/05 06:43:24;;;;;;;;;;;;;;;13.46;39.50;99410.59;4448607;32;33960;-82
2024/01/05 06:45:51;;;;;;;;;;;;;;;13.90;38.72;99403.03;4450463;32;34628;-83
2024/01/05 06:48:19;;;;;;;;;;;;;;;13.57;39.34;99398.72;4452177;32;33936;-81
2024/01/05 06:50:46;;;;;;;;;;;;;;;13.43;39.65;99394.03;4451753;32;33506;-81
2024/01/05 06:53:14;;;;;;;;;;;;;;;13.33;40.22;99398.09;4451341;32;34115;-80
2024/01/05 06:55:41;;;;;;;;;;;;;;;13.62;39.59;99382.34;4452333;32;35093;-80
2024/01/05 06:58:09;;;;;;;;;;;;;;;13.82;39.20;99386.34;4451070;32;33329;-79
2024/01/05 07:00:37;;;;;;;;;;;;;;;13.90;38.86;99397.81;4450800;32;34297;-80
2024/01/05 07:03:05;;;;;;;;;;;;;;;13.61;39.38;99393.63;4450443;32;34958;-82
2024/01/05 07:05:33;;;;;;;;;;;;;;;13.53;39.53;99388.22;4451673;32;34540;-82
2024/01/05 07:08:00;;;;;;;;;;;;;;;13.61;39.45;99389.28;4435845;32;33520;-80
2024/01/05 07:10:29;;;;;;;;;;;;;;;13.40;39.85;99392.19;4450772;32;33692;-80
2024/01/05 07:12:57;;;;;;;;;;;;;;;13.50;39.73;99390.72;4451183;32;33376;-80
2024/01/05 07:15:24;;;;;;;;;;;;;;;13.39;39.95;99390.44;4452114;32;34619;-81
2024/01/05 07:17:52;;;;;;;;;;;;;;;13.52;39.76;99389.03;4452135;32;32228;-80
2024/01/05 07:20:20;;;;;;;;;;;;;;;13.57;39.71;99388.31;4447536;32;32294;-80
2024/01/05 07:22:47;;;;;;;;;;;;;;;13.90;39.09;99384.81;4439073;32;32885;-82
2024/01/05 07:25:14;;;;;;;;;;;;;;;13.92;39.02;99383.13;4453591;32;34467;-82
2024/01/05 07:27:42;;;;;;;;;;;;;;;13.57;39.59;99377.91;4432617;32;31906;-81
2024/01/05 07:30:09;;;;;;;;;;;;;;;13.57;39.55;99367.50;4453002;32;34313;-80
2024/01/05 07:32:57;;;;;;;;;;;;;;;13.41;39.95;99365.34;4430833;32;32608;-79
2024/01/05 07:35:26;;;;;;;;;;;;;;;13.60;39.63;99358.00;4452553;32;34153;-83
2024/01/05 07:37:55;;;;;;;;;;;;;;;13.41;44.53;99364.47;4448975;32;33425;-79
2024/01/05 07:40:23;;;;;;;;;;;;;;;13.95;40.97;99366.72;4439107;32;33679;-81
2024/01/05 07:42:50;;;;;;;;;;;;;;;13.93;40.69;99351.03;4452970;32;35044;-80
2024/01/05 07:45:18;;;;;;;;;;;;;;;14.10;40.15;99358.38;4449862;32;33732;-82
2024/01/05 07:47:48;;;;;;;;;;;;;;;14.48;38.86;99355.75;4450347;32;33636;-82
2024/01/05 07:50:16;;;;;;;;;;;;;;;14.53;38.70;99355.00;4437248;32;32494;-81
2024/01/05 07:52:43;;;;;;;;;;;;;;;14.30;39.33;99357.09;4446868;32;34961;-81
2024/01/05 07:55:11;;;;;;;;;;;;;;;13.92;39.95;99354.47;4437657;32;33787;-82
2024/01/05 07:57:38;;;;;;;;;;;;;;;14.25;39.52;99357.84;4442269;32;32883;-81
2024/01/05 08:00:06;;;;;;;;;;;;;;;14.75;38.41;99356.38;4452613;32;34885;-81
2024/01/05 08:02:39;;;;;;;;;;;;;;;14.98;37.76;99350.75;4448401;32;34930;-80
2024/01/05 08:05:07;;;;;;;;;;;;;;;14.55;38.47;99358.53;4437292;32;32451;-80
2024/01/05 08:07:34;;;;;;;;;;;;;;;14.64;38.44;99357.91;4451801;32;34056;-81
2024/01/05 08:10:02;;;;;;;;;;;;;;;14.46;38.66;99357.44;4451872;32;35021;-81
2024/01/05 08:12:30;;;;;;;;;;;;;;;14.63;38.24;99369.16;4451792;32;33894;-80
2024/01/05 08:14:58;;;;;;;;;;;;;;;14.44;38.80;99374.78;4448855;32;35087;-79
2024/01/05 08:17:25;;;;;;;;;;;;;;;14.64;38.34;99370.03;4451465;32;34241;-79
2024/01/05 08:19:52;;;;;;;;;;;;;;;14.82;38.19;99372.16;4451645;32;34271;-78
2024/01/05 08:22:20;;;;;;;;;;;;;;;14.77;38.22;99373.78;4451868;32;34204;-79
2024/01/05 08:24:47;;;;;;;;;;;;;;;14.49;38.90;99381.00;4451419;32;33831;-82
2024/01/05 08:27:15;;;;;;;;;;;;;;;14.79;38.27;99385.13;4454789;32;33355;-82
2024/01/05 08:29:42;;;;;;;;;;;;;;;14.72;38.67;99386.75;4433406;32;34376;-82
2024/01/05 08:32:09;;;;;;;;;;;;;;;15.49;36.96;99393.44;4451229;32;33235;-81
2024/01/05 08:34:37;;;;;;;;;;;;;;;15.32;37.39;99395.78;4453715;32;34242;-82
2024/01/05 08:37:04;;;;;;;;;;;;;;;15.05;37.94;99394.38;4454272;32;34376;-80
2024/01/05 08:39:32;;;;;;;;;;;;;;;15.38;37.34;99375.00;4454131;32;33536;-82
2024/01/05 08:42:00;;;;;;;;;;;;;;;15.07;37.91;99383.97;4454717;32;34248;-80
2024/01/05 08:44:27;;;;;;;;;;;;;;;15.20;38.02;99398.13;4454380;32;34581;-79
2024/01/05 08:46:54;;;;;;;;;;;;;;;14.82;38.82;99400.84;4440010;32;31962;-80
2024/01/05 08:49:21;;;;;;;;;;;;;;;14.61;39.51;99402.12;4454164;32;34124;-82
2024/01/05 08:51:49;;;;;;;;;;;;;;;14.84;39.46;99396.53;4454432;32;33955;-83
2024/01/05 08:54:17;;;;;;;;;;;;;;;15.14;38.86;99397.16;4454499;32;35015;-80
2024/01/05 08:57:05;;;;;;;;;;;;;;;14.96;39.21;99396.78;4454308;32;33822;-83
2024/01/05 08:59:33;;;;;;;;;;;;;;;15.28;38.93;99383.53;4454457;32;34622;-82
2024/01/05 09:02:00;;;;;;;;;;;;;;;15.18;38.97;99390.25;4454363;32;34093;-81
2024/01/05 09:04:27;;;;;;;;;;;;;;;15.17;39.15;99396.34;4454357;32;35000;-80
2024/01/05 09:06:55;;;;;;;;;;;;;;;15.52;38.87;99397.00;4451896;32;33897;-83
2024/01/05 09:09:22;;;;;;;;;;;;;;;15.87;38.36;99404.59;4453972;32;34147;-82
2024/01/05 09:11:49;;;;;;;;;;;;;;;16.03;38.21;99402.25;4441349;32;33562;-79
2024/01/05 09:14:17;;;;;;;;;;;;;;;15.91;37.02;99398.56;4453078;32;34084;-79
2024/01/05 09:16:45;;;;;;;;;;;;;;;16.27;36.64;99404.41;4445704;32;33151;-80
2024/01/05 09:19:12;;;;;;;;;;;;;;;16.43;36.15;99405.50;4447789;32;33660;-80
2024/01/05 09:21:40;;;;;;;;;;;;;;;16.44;34.79;99400.28;4454230;32;33746;-83
2024/01/05 09:24:07;;;;;;;;;;;;;;;16.51;35.38;99401.25;4453922;32;34850;-79
2024/01/05 09:26:34;;;;;;;;;;;;;;;17.05;34.28;99405.47;4454185;32;34075;-82
2024/01/05 09:29:04;;;;;;;;;;;;;;;17.10;39.01;99423.88;4444929;32;34261;-83
2024/01/05 09:31:32;;;;;;;;;;;;;;;16.65;44.62;99423.25;4449909;32;34206;-81
2024/01/05 09:33:59;;;;;;;;;;;;;;;16.93;42.01;99421.03;4450152;32;34031;-81
2024/01/05 09:36:27;;;;;;;;;;;;;;;16.73;43.89;99409.38;4453850;32;34341;-82
2024/01/05 09:39:14;;;;;;;;;;;;;;;16.98;43.07;99419.38;4441840;32;33768;-82
2024/01/05 09:42:02;;;;;;;;;;;;;;;16.93;42.03;99415.81;4439436;32;32823;-82
2024/01/05 09:44:51;;;;;;;;;;;;;;;17.19;41.67;99412.63;4426567;32;34136;-81
2024/01/05 09:47:39;;;;;;;;;;;;;;;17.76;36.65;99390.53;4437347;32;32168;-81
2024/01/05 09:50:27;;;;;;;;;;;;;;;18.18;39.72;99378.69;4441927;32;32570;-81
2024/01/05 09:53:17;;;;;;;;;;;;;;;17.94;39.30;99368.00;4441997;32;34395;-82
2024/01/05 09:56:05;;;;;;;;;;;;;;;18.69;37.10;99367.63;4441731;32;34043;-82
2024/01/05 09:58:52;;;;;;;;;;;;;;;18.89;37.03;99349.38;4442273;32;32131;-83
2024/01/05 10:01:39;;;;;;;;;;;;;;;17.27;41.05;99350.78;4430582;32;32694;-82
2024/01/05 10:04:27;;;;;;;;;;;;;;;18.12;38.33;99341.97;4436670;32;33062;-82
2024/01/05 10:07:15;;;;;;;;;;;;;;;18.50;37.70;99346.53;4430175;32;32034;-82
2024/01/05 10:10:03;;;;;;;;;;;;;;;17.60;40.25;99344.13;4440463;32;31801;-79
2024/01/05 10:12:50;;;;;;;;;;;;;;;18.28;37.66;99333.31;4432409;32;32665;-82
2024/01/05 10:15:54;;;;;;;;;;;;;;;17.80;49.17;99331.19;4439744;32;32537;-81
2024/01/05 10:18:41;;;;;;;;;;;;;;;17.97;50.64;99341.84;4427407;32;32962;-83
2024/01/05 10:21:29;;;;;;;;;;;;;;;18.22;40.41;99321.94;4438813;32;32865;-81
2024/01/05 10:24:21;;;;;;;;;;;;;;;18.66;38.23;99322.16;4440074;32;32701;-83
2024/01/05 10:27:11;;;;;;;;;;;;;;;19.05;34.25;99315.31;4431319;32;36278;-83
2024/01/05 10:29:59;;;;;;;;;;;;;;;18.62;38.92;99311.62;4429240;32;34821;-82
2024/01/05 10:32:47;;;;;;;;;;;;;;;18.89;36.47;99303.03;4438480;32;33586;-82
2024/01/05 10:35:35;;;;;;;;;;;;;;;19.23;35.49;99303.09;4438689;32;34894;-82
2024/01/05 10:38:24;;;;;;;;;;;;;;;17.54;40.14;99302.16;4426539;32;32741;-81
2024/01/05 10:41:11;;;;;;;;;;;;;;;17.52;40.64;99301.25;4434881;32;34309;-80
2024/01/05 10:43:58;;;;;;;;;;;;;;;18.69;35.79;99287.19;4429202;32;32769;-83
2024/01/05 10:46:45;;;;;;;;;;;;;;;19.20;34.84;99279.47;4430715;32;32641;-82
2024/01/05 10:49:33;;;;;;;;;;;;;;;18.53;37.63;99275.75;4430039;32;33799;-81
2024/01/05 10:52:22;;;;;;;;;;;;;;;18.52;37.39;99266.12;4439089;32;33357;-81
2024/01/05 10:55:10;;;;;;;;;;;;;;;18.91;36.77;99259.31;4447709;32;32169;-82
2024/01/05 10:57:57;;;;;;;;;;;;;;;18.58;37.18;99258.31;4429623;32;33233;-82
2024/01/05 11:00:44;;;;;;;;;;;;;;;19.43;36.05;99256.75;4430603;32;33250;-81
2024/01/05 11:03:36;;;;;;;;;;;;;;;18.76;36.64;99261.84;4422811;32;34354;-82
2024/01/05 11:06:23;;;;;;;;;;;;;;;19.44;33.09;99258.47;4440616;32;33063;-82
2024/01/05 11:09:18;;;;;;;;;;;;;;;18.97;35.17;99255.81;4430535;32;32859;-82
2024/01/05 11:12:09;;;;;;;;;;;;;;;19.51;34.55;99245.34;4430220;32;32801;-82
2024/01/05 11:15:22;;;;;;;;;;;;;;;19.60;34.10;99232.19;4426106;32;32947;-83
2024/01/05 11:18:10;;;;;;;;;;;;;;;19.20;34.67;99237.44;4420962;32;32124;-81
2024/01/05 11:21:02;;;;;;;;;;;;;;;19.74;35.35;99251.50;4436312;32;33638;-82
2024/01/05 11:23:50;;;;;;;;;;;;;;;19.35;39.26;99236.59;4439939;32;33353;-80
2024/01/05 11:26:42;;;;;;;;;;;;;;;19.90;34.38;99230.47;4439154;32;33255;-81
2024/01/05 11:29:44;;;;;;;;;;;;;;;19.87;35.50;99231.31;4429314;32;33957;-82
2024/01/05 11:32:38;;;;;;;;;;;;;;;19.45;32.81;99223.47;4438807;32;34595;-81
2024/01/05 11:35:25;;;;;;;;;;;;;;;20.04;32.90;99223.41;4437655;32;33200;-82
2024/01/05 11:38:29;;;;;;;;;;;;;;;19.48;32.58;99217.34;4432849;32;32853;-82
2024/01/05 11:41:17;;;;;;;;;;;;;;;18.28;36.00;99215.34;4437812;32;32213;-81
2024/01/05 11:44:04;;;;;;;;;;;;;;;19.28;35.21;99219.06;4425966;32;32680;-82
2024/01/05 11:46:52;;;;;;;;;;;;;;;19.76;33.96;99210.34;4436744;32;33701;-82
2024/01/05 11:49:41;;;;;;;;;;;;;;;19.28;47.82;99209.47;4427421;32;33637;-82
2024/01/05 11:52:29;;;;;;;;;;;;;;;19.51;34.94;99211.19;4440854;32;32029;-82
2024/01/05 11:55:16;;;;;;;;;;;;;;;19.04;35.60;99199.81;4426863;32;33953;-82
2024/01/05 11:58:04;;;;;;;;;;;;;;;19.21;36.28;99197.22;4431323;32;32726;-81
2024/01/05 12:00:52;;;;;;;;;;;;;;;19.20;34.99;99200.69;4441719;32;34109;-82
2024/01/05 12:03:40;;;;;;;;;;;;;;;19.12;36.23;99207.69;4425632;32;32768;-81
2024/01/05 12:06:29;;;;;;;;;;;;;;;19.28;33.84;99221.69;4441134;32;33261;-82
2024/01/05 12:09:18;;;;;;;;;;;;;;;18.82;36.50;99214.66;4429250;32;32782;-80
2024/01/05 12:12:16;;;;;;;;;;;;;;;19.14;35.40;99221.69;4442082;32;32944;-83
2024/01/05 12:15:10;;;;;;;;;;;;;;;18.55;48.85;99234.66;4431859;32;33208;-82
2024/01/05 12:18:10;;;;;;;;;;;;;;;17.18;42.53;99225.06;4435014;32;32822;-82
2024/01/05 12:21:10;;;;;;;;;;;;;;;18.60;38.22;99221.56;4438932;32;32745;-81
2024/01/05 12:24:01;;;;;;;;;;;;;;;19.67;34.07;99214.69;4437684;32;34216;-82
2024/01/05 12:26:52;;;;;;;;;;;;;;;19.69;33.92;99211.19;4440485;32;32337;-82
2024/01/05 12:29:42;;;;;;;;;;;;;;;20.34;32.71;99205.75;4448211;32;33437;-82
2024/01/05 12:32:33;;;;;;;;;;;;;;;20.20;32.95;99204.06;4433199;32;33317;-81
2024/01/05 12:35:20;;;;;;;;;;;;;;;19.93;34.67;99209.41;4440970;32;33590;-82
2024/01/05 12:38:07;;;;;;;;;;;;;;;19.86;34.05;99199.78;4438675;32;32872;-81
2024/01/05 12:41:13;;;;;;;;;;;;;;;20.32;32.74;99183.84;4433311;32;33332;-82
2024/01/05 12:44:10;;;;;;;;;;;;;;;19.93;33.68;99188.38;4430029;32;34392;-81
2024/01/05 12:46:59;;;;;;;;;;;;;;;19.81;34.01;99187.53;4436317;32;33231;-82
2024/01/05 12:49:46;;;;;;;;;;;;;;;19.88;33.89;99179.66;4432060;32;33338;-82
2024/01/05 12:52:37;;;;;;;;;;;;;;;19.90;34.08;99172.63;4437542;32;32681;-82
2024/01/05 12:55:34;;;;;;;;;;;;;;;19.77;34.21;99177.91;4431023;32;34827;-82
2024/01/05 12:58:21;;;;;;;;;;;;;;;20.10;33.80;99165.53;4434635;32;33517;-82
2024/01/05 13:01:16;;;;;;;;;;;;;;;19.96;34.23;99157.69;4431530;32;33631;-82
2024/01/05 13:04:05;;;;;;;;;;;;;;;19.55;35.23;99166.53;4442195;32;33268;-81
2024/01/05 13:06:53;;;;;;;;;;;;;;;20.13;34.25;99165.53;4442357;32;32283;-82
2024/01/05 13:09:40;;;;;;;;;;;;;;;20.06;34.26;99168.19;4441142;32;32875;-80
2024/01/05 13:12:28;;;;;;;;;;;;;;;19.74;35.20;99167.41;4449365;32;33786;-81
2024/01/05 13:15:15;;;;;;;;;;;;;;;19.64;35.27;99173.53;4442999;32;33384;-82
2024/01/05 13:18:03;;;;;;;;;;;;;;;18.49;45.21;99176.09;4434002;32;33436;-81
2024/01/05 13:20:50;;;;;;;;;;;;;;;18.36;44.65;99176.03;4441874;32;34146;-83